Taylor, Nebraska
Current Conditions -  °F | °C
As of 4:53 PM on Wednesday 26 Nov 2014 (Local Time) from KODX Reporting Station
Clear Clear  
Wind Chill: 16°   Ceiling: Unl
Heat Index: 27°   Visibility: 10mi
Dew Point: 16°   Wind: 13mph
Humidity: 63%   Direction: 350°N
Pressure: 30.33"   Gusts: NA
Location:  41.77°N, 99.38°W
Report Text: KODX 262253Z AUTO 35011KT 10SM CLR M03/M09 A3033 RMK AO2 SLP294 T10281089
Loading
Personal Weather Stations






























Interactive Weather Map New forecast layout! Learn more

10-Day Weather Forecast

Advertisements
Track Severe Weather on mobile